sensor_id;sensor_type;location;lat;lon;timestamp;P1;durP1;ratioP1;P2;durP2;ratioP2
72676;SDS011;60755;51.374;10.662;2023-05-10T00:02:21;5.80;;;4.13;;
72676;SDS011;60755;51.374;10.662;2023-05-10T00:04:48;4.20;;;3.80;;
72676;SDS011;60755;51.374;10.662;2023-05-10T00:07:15;4.20;;;3.80;;
72676;SDS011;60755;51.374;10.662;2023-05-10T00:09:43;5.67;;;4.07;;
72676;SDS011;60755;51.374;10.662;2023-05-10T00:12:10;4.53;;;4.13;;
72676;SDS011;60755;51.374;10.662;2023-05-10T00:14:39;4.37;;;3.73;;
72676;SDS011;60755;51.374;10.662;2023-05-10T00:17:06;4.63;;;4.20;;
72676;SDS011;60755;51.374;10.662;2023-05-10T00:19:33;5.10;;;4.70;;
72676;SDS011;60755;51.374;10.662;2023-05-10T00:22:00;5.53;;;3.80;;
72676;SDS011;60755;51.374;10.662;2023-05-10T00:24:27;5.27;;;3.97;;
72676;SDS011;60755;51.374;10.662;2023-05-10T00:26:54;4.27;;;3.87;;
72676;SDS011;60755;51.374;10.662;2023-05-10T00:29:22;4.40;;;4.10;;
72676;SDS011;60755;51.374;10.662;2023-05-10T00:31:51;4.60;;;4.20;;
72676;SDS011;60755;51.374;10.662;2023-05-10T00:34:18;4.50;;;3.73;;
72676;SDS011;60755;51.374;10.662;2023-05-10T00:36:45;4.00;;;3.70;;
72676;SDS011;60755;51.374;10.662;2023-05-10T00:39:12;4.07;;;3.70;;
72676;SDS011;60755;51.374;10.662;2023-05-10T00:41:40;10.57;;;3.93;;
72676;SDS011;60755;51.374;10.662;2023-05-10T00:44:07;4.57;;;4.17;;
72676;SDS011;60755;51.374;10.662;2023-05-10T00:46:34;5.80;;;4.03;;
72676;SDS011;60755;51.374;10.662;2023-05-10T00:49:03;4.23;;;3.90;;
72676;SDS011;60755;51.374;10.662;2023-05-10T00:51:30;5.80;;;4.53;;
72676;SDS011;60755;51.374;10.662;2023-05-10T00:53:58;5.97;;;4.20;;
72676;SDS011;60755;51.374;10.662;2023-05-10T00:56:25;4.87;;;4.33;;
72676;SDS011;60755;51.374;10.662;2023-05-10T00:58:55;4.33;;;3.93;;
72676;SDS011;60755;51.374;10.662;2023-05-10T01:01:22;4.60;;;4.23;;
72676;SDS011;60755;51.374;10.662;2023-05-10T01:03:51;4.70;;;3.90;;
72676;SDS011;60755;51.374;10.662;2023-05-10T01:06:20;5.43;;;4.30;;
72676;SDS011;60755;51.374;10.662;2023-05-10T01:08:47;4.30;;;4.00;;
72676;SDS011;60755;51.374;10.662;2023-05-10T01:11:14;5.43;;;4.30;;
72676;SDS011;60755;51.374;10.662;2023-05-10T01:13:42;4.37;;;4.07;;
72676;SDS011;60755;51.374;10.662;2023-05-10T01:16:14;4.17;;;3.77;;
72676;SDS011;60755;51.374;10.662;2023-05-10T01:18:41;4.87;;;4.47;;
72676;SDS011;60755;51.374;10.662;2023-05-10T01:21:14;7.27;;;4.13;;
72676;SDS011;60755;51.374;10.662;2023-05-10T01:24:00;6.00;;;4.23;;
72676;SDS011;60755;51.374;10.662;2023-05-10T01:26:58;4.30;;;4.00;;
72676;SDS011;60755;51.374;10.662;2023-05-10T01:29:42;4.50;;;4.10;;
72676;SDS011;60755;51.374;10.662;2023-05-10T01:32:37;5.07;;;4.10;;
72676;SDS011;60755;51.374;10.662;2023-05-10T01:35:15;4.73;;;3.93;;
72676;SDS011;60755;51.374;10.662;2023-05-10T01:37:48;6.20;;;4.30;;
72676;SDS011;60755;51.374;10.662;2023-05-10T01:40:20;5.60;;;4.50;;
72676;SDS011;60755;51.374;10.662;2023-05-10T01:42:54;7.03;;;4.17;;
72676;SDS011;60755;51.374;10.662;2023-05-10T01:45:28;4.70;;;4.40;;
72676;SDS011;60755;51.374;10.662;2023-05-10T01:48:03;4.30;;;4.00;;
72676;SDS011;60755;51.374;10.662;2023-05-10T01:50:33;6.73;;;4.20;;
72676;SDS011;60755;51.374;10.662;2023-05-10T01:53:02;4.70;;;4.00;;
72676;SDS011;60755;51.374;10.662;2023-05-10T01:55:33;4.23;;;3.93;;
72676;SDS011;60755;51.374;10.662;2023-05-10T01:58:07;4.23;;;3.93;;
72676;SDS011;60755;51.374;10.662;2023-05-10T02:00:40;6.20;;;4.40;;
72676;SDS011;60755;51.374;10.662;2023-05-10T02:03:11;4.70;;;4.00;;
72676;SDS011;60755;51.374;10.662;2023-05-10T02:05:40;4.17;;;3.87;;
72676;SDS011;60755;51.374;10.662;2023-05-10T02:08:10;4.60;;;4.20;;
72676;SDS011;60755;51.374;10.662;2023-05-10T02:10:39;4.30;;;3.90;;
72676;SDS011;60755;51.374;10.662;2023-05-10T02:13:07;4.57;;;4.27;;
72676;SDS011;60755;51.374;10.662;2023-05-10T02:15:36;4.33;;;4.03;;
72676;SDS011;60755;51.374;10.662;2023-05-10T02:18:05;4.13;;;3.87;;
72676;SDS011;60755;51.374;10.662;2023-05-10T02:20:36;5.63;;;4.40;;
72676;SDS011;60755;51.374;10.662;2023-05-10T02:23:04;4.87;;;4.30;;
72676;SDS011;60755;51.374;10.662;2023-05-10T02:25:33;4.90;;;4.40;;
72676;SDS011;60755;51.374;10.662;2023-05-10T02:28:02;5.27;;;4.37;;
72676;SDS011;60755;51.374;10.662;2023-05-10T02:30:31;4.70;;;4.30;;
72676;SDS011;60755;51.374;10.662;2023-05-10T02:33:00;4.40;;;4.10;;
72676;SDS011;60755;51.374;10.662;2023-05-10T02:35:29;7.67;;;3.90;;
72676;SDS011;60755;51.374;10.662;2023-05-10T02:38:00;4.27;;;3.97;;
72676;SDS011;60755;51.374;10.662;2023-05-10T02:40:29;5.33;;;4.13;;
72676;SDS011;60755;51.374;10.662;2023-05-10T02:42:56;6.17;;;4.47;;
72676;SDS011;60755;51.374;10.662;2023-05-10T02:45:27;4.50;;;4.20;;
72676;SDS011;60755;51.374;10.662;2023-05-10T02:47:57;6.03;;;4.43;;
72676;SDS011;60755;51.374;10.662;2023-05-10T02:50:25;4.93;;;4.43;;
72676;SDS011;60755;51.374;10.662;2023-05-10T02:52:56;6.87;;;4.43;;
72676;SDS011;60755;51.374;10.662;2023-05-10T02:55:31;4.67;;;4.27;;
72676;SDS011;60755;51.374;10.662;2023-05-10T02:58:00;4.40;;;4.10;;
72676;SDS011;60755;51.374;10.662;2023-05-10T03:00:28;5.67;;;4.50;;
72676;SDS011;60755;51.374;10.662;2023-05-10T03:02:56;4.80;;;4.30;;
72676;SDS011;60755;51.374;10.662;2023-05-10T03:05:23;4.77;;;4.37;;
72676;SDS011;60755;51.374;10.662;2023-05-10T03:07:51;4.80;;;4.40;;
72676;SDS011;60755;51.374;10.662;2023-05-10T03:10:21;4.83;;;4.43;;
72676;SDS011;60755;51.374;10.662;2023-05-10T03:15:39;4.37;;;4.00;;
72676;SDS011;60755;51.374;10.662;2023-05-10T03:18:15;4.83;;;4.43;;
72676;SDS011;60755;51.374;10.662;2023-05-10T03:20:47;5.07;;;4.57;;
72676;SDS011;60755;51.374;10.662;2023-05-10T03:23:19;5.03;;;4.63;;
72676;SDS011;60755;51.374;10.662;2023-05-10T03:25:51;4.60;;;4.20;;
72676;SDS011;60755;51.374;10.662;2023-05-10T03:28:20;4.77;;;4.43;;
72676;SDS011;60755;51.374;10.662;2023-05-10T03:30:47;4.43;;;4.10;;
72676;SDS011;60755;51.374;10.662;2023-05-10T03:33:16;5.40;;;4.00;;
72676;SDS011;60755;51.374;10.662;2023-05-10T03:35:46;7.80;;;4.40;;
72676;SDS011;60755;51.374;10.662;2023-05-10T03:38:14;4.93;;;4.53;;
72676;SDS011;60755;51.374;10.662;2023-05-10T03:40:41;4.60;;;4.30;;
72676;SDS011;60755;51.374;10.662;2023-05-10T03:43:09;5.67;;;4.80;;
72676;SDS011;60755;51.374;10.662;2023-05-10T03:45:37;5.10;;;4.70;;
72676;SDS011;60755;51.374;10.662;2023-05-10T03:48:04;4.80;;;4.37;;
72676;SDS011;60755;51.374;10.662;2023-05-10T03:50:32;4.63;;;4.23;;
72676;SDS011;60755;51.374;10.662;2023-05-10T03:52:59;6.03;;;5.00;;
72676;SDS011;60755;51.374;10.662;2023-05-10T03:55:27;7.63;;;5.67;;
72676;SDS011;60755;51.374;10.662;2023-05-10T03:57:55;12.30;;;10.20;;
72676;SDS011;60755;51.374;10.662;2023-05-10T04:00:24;5.97;;;5.47;;
72676;SDS011;60755;51.374;10.662;2023-05-10T04:02:54;8.60;;;5.63;;
72676;SDS011;60755;51.374;10.662;2023-05-10T04:05:22;5.93;;;5.20;;
72676;SDS011;60755;51.374;10.662;2023-05-10T04:07:51;5.30;;;4.90;;
72676;SDS011;60755;51.374;10.662;2023-05-10T04:10:19;5.43;;;4.93;;
72676;SDS011;60755;51.374;10.662;2023-05-10T04:12:46;5.17;;;4.43;;
72676;SDS011;60755;51.374;10.662;2023-05-10T04:15:14;5.33;;;4.40;;
72676;SDS011;60755;51.374;10.662;2023-05-10T04:17:42;5.87;;;5.27;;
72676;SDS011;60755;51.374;10.662;2023-05-10T04:20:10;5.10;;;4.60;;
72676;SDS011;60755;51.374;10.662;2023-05-10T04:22:38;5.40;;;5.00;;
72676;SDS011;60755;51.374;10.662;2023-05-10T04:25:05;4.73;;;4.43;;
72676;SDS011;60755;51.374;10.662;2023-05-10T04:27:33;7.50;;;4.80;;
72676;SDS011;60755;51.374;10.662;2023-05-10T04:30:01;4.83;;;4.37;;
72676;SDS011;60755;51.374;10.662;2023-05-10T04:32:28;5.67;;;5.10;;
72676;SDS011;60755;51.374;10.662;2023-05-10T04:34:58;5.97;;;4.80;;
72676;SDS011;60755;51.374;10.662;2023-05-10T04:37:25;5.43;;;4.93;;
72676;SDS011;60755;51.374;10.662;2023-05-10T04:39:52;6.73;;;5.07;;
72676;SDS011;60755;51.374;10.662;2023-05-10T04:42:19;4.90;;;4.50;;
72676;SDS011;60755;51.374;10.662;2023-05-10T04:44:47;5.73;;;4.97;;
72676;SDS011;60755;51.374;10.662;2023-05-10T04:47:14;5.40;;;4.90;;
72676;SDS011;60755;51.374;10.662;2023-05-10T04:49:41;5.10;;;4.70;;
72676;SDS011;60755;51.374;10.662;2023-05-10T04:52:10;5.03;;;4.67;;
72676;SDS011;60755;51.374;10.662;2023-05-10T04:54:38;5.40;;;4.60;;
72676;SDS011;60755;51.374;10.662;2023-05-10T04:57:05;4.63;;;4.33;;
72676;SDS011;60755;51.374;10.662;2023-05-10T04:59:32;5.37;;;4.87;;
72676;SDS011;60755;51.374;10.662;2023-05-10T05:02:02;5.50;;;5.10;;
72676;SDS011;60755;51.374;10.662;2023-05-10T05:04:29;5.67;;;5.10;;
72676;SDS011;60755;51.374;10.662;2023-05-10T05:06:57;6.37;;;5.03;;
72676;SDS011;60755;51.374;10.662;2023-05-10T05:09:25;5.93;;;5.43;;
72676;SDS011;60755;51.374;10.662;2023-05-10T05:11:53;6.00;;;5.10;;
72676;SDS011;60755;51.374;10.662;2023-05-10T05:14:20;5.80;;;5.30;;
72676;SDS011;60755;51.374;10.662;2023-05-10T05:16:47;5.83;;;5.33;;
72676;SDS011;60755;51.374;10.662;2023-05-10T05:19:14;6.17;;;5.40;;
72676;SDS011;60755;51.374;10.662;2023-05-10T05:21:42;5.53;;;5.03;;
72676;SDS011;60755;51.374;10.662;2023-05-10T05:24:09;9.10;;;5.68;;
72676;SDS011;60755;51.374;10.662;2023-05-10T05:26:39;6.90;;;5.10;;
72676;SDS011;60755;51.374;10.662;2023-05-10T05:29:07;6.53;;;5.23;;
72676;SDS011;60755;51.374;10.662;2023-05-10T05:31:34;5.43;;;4.90;;
72676;SDS011;60755;51.374;10.662;2023-05-10T05:34:01;8.80;;;5.22;;
72676;SDS011;60755;51.374;10.662;2023-05-10T05:36:29;5.73;;;4.97;;
72676;SDS011;60755;51.374;10.662;2023-05-10T05:38:57;8.03;;;5.23;;
72676;SDS011;60755;51.374;10.662;2023-05-10T05:41:24;6.07;;;5.57;;
72676;SDS011;60755;51.374;10.662;2023-05-10T05:43:52;6.07;;;5.17;;
72676;SDS011;60755;51.374;10.662;2023-05-10T05:46:20;6.30;;;4.93;;
72676;SDS011;60755;51.374;10.662;2023-05-10T05:48:47;6.27;;;5.40;;
72676;SDS011;60755;51.374;10.662;2023-05-10T05:51:14;5.87;;;5.30;;
72676;SDS011;60755;51.374;10.662;2023-05-10T05:53:41;6.50;;;5.80;;
72676;SDS011;60755;51.374;10.662;2023-05-10T05:56:08;5.83;;;5.33;;
72676;SDS011;60755;51.374;10.662;2023-05-10T05:58:36;6.50;;;5.87;;
72676;SDS011;60755;51.374;10.662;2023-05-10T06:01:04;5.70;;;5.30;;
72676;SDS011;60755;51.374;10.662;2023-05-10T06:03:32;5.90;;;5.40;;
72676;SDS011;60755;51.374;10.662;2023-05-10T06:05:59;6.40;;;5.80;;
72676;SDS011;60755;51.374;10.662;2023-05-10T06:08:26;6.67;;;5.97;;
72676;SDS011;60755;51.374;10.662;2023-05-10T06:10:53;10.23;;;5.80;;
72676;SDS011;60755;51.374;10.662;2023-05-10T06:13:21;7.47;;;6.13;;
72676;SDS011;60755;51.374;10.662;2023-05-10T06:15:48;6.17;;;5.57;;
72676;SDS011;60755;51.374;10.662;2023-05-10T06:18:16;6.50;;;5.90;;
72676;SDS011;60755;51.374;10.662;2023-05-10T06:20:43;6.93;;;6.03;;
72676;SDS011;60755;51.374;10.662;2023-05-10T06:23:11;7.67;;;5.80;;
72676;SDS011;60755;51.374;10.662;2023-05-10T06:25:38;7.20;;;6.50;;
72676;SDS011;60755;51.374;10.662;2023-05-10T06:28:05;6.50;;;6.00;;
72676;SDS011;60755;51.374;10.662;2023-05-10T06:30:33;6.30;;;5.80;;
72676;SDS011;60755;51.374;10.662;2023-05-10T06:33:00;7.20;;;6.47;;
72676;SDS011;60755;51.374;10.662;2023-05-10T06:35:29;7.07;;;6.47;;
72676;SDS011;60755;51.374;10.662;2023-05-10T06:37:57;7.17;;;6.47;;
72676;SDS011;60755;51.374;10.662;2023-05-10T06:40:24;6.90;;;6.30;;
72676;SDS011;60755;51.374;10.662;2023-05-10T06:42:51;6.83;;;6.17;;
72676;SDS011;60755;51.374;10.662;2023-05-10T06:45:19;7.33;;;6.20;;
72676;SDS011;60755;51.374;10.662;2023-05-10T06:47:46;8.20;;;7.50;;
72676;SDS011;60755;51.374;10.662;2023-05-10T06:50:13;7.47;;;6.77;;
72676;SDS011;60755;51.374;10.662;2023-05-10T06:52:42;9.23;;;8.30;;
72676;SDS011;60755;51.374;10.662;2023-05-10T06:55:09;7.38;;;6.70;;
72676;SDS011;60755;51.374;10.662;2023-05-10T06:57:37;8.00;;;7.10;;
72676;SDS011;60755;51.374;10.662;2023-05-10T07:00:04;8.00;;;7.20;;
72676;SDS011;60755;51.374;10.662;2023-05-10T07:02:33;8.07;;;7.10;;
72676;SDS011;60755;51.374;10.662;2023-05-10T07:05:00;8.07;;;7.30;;
72676;SDS011;60755;51.374;10.662;2023-05-10T07:07:27;8.03;;;7.00;;
72676;SDS011;60755;51.374;10.662;2023-05-10T07:09:56;7.73;;;7.03;;
72676;SDS011;60755;51.374;10.662;2023-05-10T07:12:24;8.40;;;7.33;;
72676;SDS011;60755;51.374;10.662;2023-05-10T07:14:51;8.97;;;7.60;;
72676;SDS011;60755;51.374;10.662;2023-05-10T07:17:18;7.83;;;7.13;;
72676;SDS011;60755;51.374;10.662;2023-05-10T07:19:46;8.47;;;7.67;;
72676;SDS011;60755;51.374;10.662;2023-05-10T07:22:13;7.80;;;7.10;;
72676;SDS011;60755;51.374;10.662;2023-05-10T07:24:40;8.57;;;7.73;;
72676;SDS011;60755;51.374;10.662;2023-05-10T07:27:09;8.97;;;7.43;;
72676;SDS011;60755;51.374;10.662;2023-05-10T07:29:36;9.53;;;7.03;;
72676;SDS011;60755;51.374;10.662;2023-05-10T07:32:03;8.27;;;7.47;;
72676;SDS011;60755;51.374;10.662;2023-05-10T07:34:31;9.40;;;7.43;;
72676;SDS011;60755;51.374;10.662;2023-05-10T07:36:58;7.97;;;7.28;;
72676;SDS011;60755;51.374;10.662;2023-05-10T07:39:25;7.55;;;6.85;;
72676;SDS011;60755;51.374;10.662;2023-05-10T07:41:53;8.43;;;7.18;;
72676;SDS011;60755;51.374;10.662;2023-05-10T07:44:22;9.18;;;7.18;;
72676;SDS011;60755;51.374;10.662;2023-05-10T07:46:49;8.32;;;6.78;;
72676;SDS011;60755;51.374;10.662;2023-05-10T07:49:16;6.97;;;6.35;;
72676;SDS011;60755;51.374;10.662;2023-05-10T07:51:43;7.50;;;6.80;;
72676;SDS011;60755;51.374;10.662;2023-05-10T07:54:11;7.85;;;7.13;;
72676;SDS011;60755;51.374;10.662;2023-05-10T07:56:38;32.22;;;21.88;;
72676;SDS011;60755;51.374;10.662;2023-05-10T07:59:10;11.15;;;10.05;;
72676;SDS011;60755;51.374;10.662;2023-05-10T08:01:43;9.82;;;7.60;;
72676;SDS011;60755;51.374;10.662;2023-05-10T08:04:11;8.25;;;7.53;;
72676;SDS011;60755;51.374;10.662;2023-05-10T08:06:38;7.55;;;6.80;;
72676;SDS011;60755;51.374;10.662;2023-05-10T08:09:06;7.85;;;6.95;;
72676;SDS011;60755;51.374;10.662;2023-05-10T08:11:33;7.50;;;6.80;;
72676;SDS011;60755;51.374;10.662;2023-05-10T08:14:00;7.22;;;6.53;;
72676;SDS011;60755;51.374;10.662;2023-05-10T08:16:28;7.38;;;6.68;;
72676;SDS011;60755;51.374;10.662;2023-05-10T08:18:56;6.93;;;6.32;;
72676;SDS011;60755;51.374;10.662;2023-05-10T08:21:24;7.50;;;6.22;;
72676;SDS011;60755;51.374;10.662;2023-05-10T08:23:51;6.75;;;6.25;;
72676;SDS011;60755;51.374;10.662;2023-05-10T08:26:18;7.57;;;6.72;;
72676;SDS011;60755;51.374;10.662;2023-05-10T08:28:46;9.35;;;6.88;;
72676;SDS011;60755;51.374;10.662;2023-05-10T08:31:13;7.10;;;6.45;;
72676;SDS011;60755;51.374;10.662;2023-05-10T08:33:41;7.32;;;6.60;;
72676;SDS011;60755;51.374;10.662;2023-05-10T08:36:10;6.82;;;6.22;;
72676;SDS011;60755;51.374;10.662;2023-05-10T08:38:39;6.88;;;6.22;;
72676;SDS011;60755;51.374;10.662;2023-05-10T08:41:06;7.22;;;6.53;;
72676;SDS011;60755;51.374;10.662;2023-05-10T08:43:34;5.55;;;5.15;;
72676;SDS011;60755;51.374;10.662;2023-05-10T08:46:03;3.15;;;2.85;;
72676;SDS011;60755;51.374;10.662;2023-05-10T08:48:32;2.58;;;2.47;;
72676;SDS011;60755;51.374;10.662;2023-05-10T08:51:01;1.80;;;1.80;;
72676;SDS011;60755;51.374;10.662;2023-05-10T08:53:32;1.10;;;1.10;;
72676;SDS011;60755;51.374;10.662;2023-05-10T08:56:03;2.45;;;1.10;;
72676;SDS011;60755;51.374;10.662;2023-05-10T08:58:30;1.33;;;1.00;;
72676;SDS011;60755;51.374;10.662;2023-05-10T09:00:58;2.70;;;1.30;;
72676;SDS011;60755;51.374;10.662;2023-05-10T09:03:27;1.30;;;1.30;;
72676;SDS011;60755;51.374;10.662;2023-05-10T09:05:54;1.30;;;1.30;;
72676;SDS011;60755;51.374;10.662;2023-05-10T09:08:22;1.00;;;1.00;;
72676;SDS011;60755;51.374;10.662;2023-05-10T09:10:52;1.13;;;1.13;;
72676;SDS011;60755;51.374;10.662;2023-05-10T09:13:21;2.15;;;0.98;;
72676;SDS011;60755;51.374;10.662;2023-05-10T09:15:49;1.30;;;1.30;;
72676;SDS011;60755;51.374;10.662;2023-05-10T09:18:17;0.90;;;0.90;;
72676;SDS011;60755;51.374;10.662;2023-05-10T09:20:45;0.90;;;0.90;;
72676;SDS011;60755;51.374;10.662;2023-05-10T09:23:12;1.55;;;1.10;;
72676;SDS011;60755;51.374;10.662;2023-05-10T09:25:40;0.77;;;0.77;;
72676;SDS011;60755;51.374;10.662;2023-05-10T09:28:09;1.23;;;1.10;;
72676;SDS011;60755;51.374;10.662;2023-05-10T09:30:37;0.90;;;0.90;;
72676;SDS011;60755;51.374;10.662;2023-05-10T09:33:05;0.80;;;0.80;;
72676;SDS011;60755;51.374;10.662;2023-05-10T09:35:33;0.90;;;0.90;;
72676;SDS011;60755;51.374;10.662;2023-05-10T09:38:02;0.80;;;0.80;;
72676;SDS011;60755;51.374;10.662;2023-05-10T09:40:31;0.80;;;0.80;;
72676;SDS011;60755;51.374;10.662;2023-05-10T09:43:00;0.70;;;0.70;;
72676;SDS011;60755;51.374;10.662;2023-05-10T09:45:30;0.85;;;0.85;;
72676;SDS011;60755;51.374;10.662;2023-05-10T09:47:58;0.93;;;0.93;;
72676;SDS011;60755;51.374;10.662;2023-05-10T09:50:27;1.52;;;1.00;;
72676;SDS011;60755;51.374;10.662;2023-05-10T09:52:55;0.90;;;0.90;;
72676;SDS011;60755;51.374;10.662;2023-05-10T09:55:26;1.20;;;1.20;;
72676;SDS011;60755;51.374;10.662;2023-05-10T09:58:05;1.10;;;1.10;;
72676;SDS011;60755;51.374;10.662;2023-05-10T10:00:37;0.95;;;0.80;;
72676;SDS011;60755;51.374;10.662;2023-05-10T10:03:06;0.70;;;0.70;;
72676;SDS011;60755;51.374;10.662;2023-05-10T10:05:40;0.80;;;0.80;;
72676;SDS011;60755;51.374;10.662;2023-05-10T10:08:08;1.30;;;1.30;;
72676;SDS011;60755;51.374;10.662;2023-05-10T10:10:35;0.90;;;0.90;;
72676;SDS011;60755;51.374;10.662;2023-05-10T10:13:04;1.48;;;1.00;;
72676;SDS011;60755;51.374;10.662;2023-05-10T10:15:31;0.90;;;0.90;;
72676;SDS011;60755;51.374;10.662;2023-05-10T10:18:01;1.15;;;1.15;;
72676;SDS011;60755;51.374;10.662;2023-05-10T10:20:29;1.00;;;1.00;;
72676;SDS011;60755;51.374;10.662;2023-05-10T10:22:56;1.00;;;1.00;;
72676;SDS011;60755;51.374;10.662;2023-05-10T10:25:23;1.85;;;0.90;;
72676;SDS011;60755;51.374;10.662;2023-05-10T10:27:59;1.35;;;1.27;;
72676;SDS011;60755;51.374;10.662;2023-05-10T10:30:40;1.42;;;1.00;;
72676;SDS011;60755;51.374;10.662;2023-05-10T10:36:18;1.30;;;1.30;;
72676;SDS011;60755;51.374;10.662;2023-05-10T10:38:56;1.45;;;1.17;;
72676;SDS011;60755;51.374;10.662;2023-05-10T10:41:32;1.20;;;1.20;;
72676;SDS011;60755;51.374;10.662;2023-05-10T10:47:00;2.80;;;1.45;;
72676;SDS011;60755;51.374;10.662;2023-05-10T10:49:32;1.27;;;1.27;;
72676;SDS011;60755;51.374;10.662;2023-05-10T10:52:13;1.08;;;1.08;;
72676;SDS011;60755;51.374;10.662;2023-05-10T10:54:46;0.90;;;0.90;;
72676;SDS011;60755;51.374;10.662;2023-05-10T10:57:17;1.20;;;1.20;;
72676;SDS011;60755;51.374;10.662;2023-05-10T10:59:47;1.92;;;1.83;;
72676;SDS011;60755;51.374;10.662;2023-05-10T11:02:33;1.95;;;1.30;;
72676;SDS011;60755;51.374;10.662;2023-05-10T11:08:13;0.90;;;0.90;;
72676;SDS011;60755;51.374;10.662;2023-05-10T11:10:52;1.17;;;1.17;;
72676;SDS011;60755;51.374;10.662;2023-05-10T11:13:30;0.80;;;0.80;;
72676;SDS011;60755;51.374;10.662;2023-05-10T11:15:58;45.78;;;24.30;;
72676;SDS011;60755;51.374;10.662;2023-05-10T11:18:36;5.22;;;4.22;;
72676;SDS011;60755;51.374;10.662;2023-05-10T11:21:04;1.10;;;1.10;;
72676;SDS011;60755;51.374;10.662;2023-05-10T11:23:33;0.90;;;0.90;;
72676;SDS011;60755;51.374;10.662;2023-05-10T11:26:16;0.90;;;0.90;;
72676;SDS011;60755;51.374;10.662;2023-05-10T11:28:43;1.98;;;1.85;;
72676;SDS011;60755;51.374;10.662;2023-05-10T11:31:13;1.10;;;1.08;;
72676;SDS011;60755;51.374;10.662;2023-05-10T11:33:43;1.10;;;1.10;;
72676;SDS011;60755;51.374;10.662;2023-05-10T11:36:11;1.08;;;1.08;;
72676;SDS011;60755;51.374;10.662;2023-05-10T11:38:40;1.13;;;1.13;;
72676;SDS011;60755;51.374;10.662;2023-05-10T11:41:08;1.50;;;1.50;;
72676;SDS011;60755;51.374;10.662;2023-05-10T11:43:37;1.80;;;1.70;;
72676;SDS011;60755;51.374;10.662;2023-05-10T11:46:05;1.58;;;1.40;;
72676;SDS011;60755;51.374;10.662;2023-05-10T11:48:33;2.33;;;1.70;;
72676;SDS011;60755;51.374;10.662;2023-05-10T11:51:00;1.00;;;1.00;;
72676;SDS011;60755;51.374;10.662;2023-05-10T11:53:29;1.08;;;1.08;;
72676;SDS011;60755;51.374;10.662;2023-05-10T11:56:03;1.13;;;1.13;;
72676;SDS011;60755;51.374;10.662;2023-05-10T11:58:32;0.80;;;0.80;;
72676;SDS011;60755;51.374;10.662;2023-05-10T12:00:59;0.73;;;0.73;;
72676;SDS011;60755;51.374;10.662;2023-05-10T12:03:27;1.90;;;0.80;;
72676;SDS011;60755;51.374;10.662;2023-05-10T12:05:55;0.80;;;0.80;;
72676;SDS011;60755;51.374;10.662;2023-05-10T12:08:23;1.10;;;1.10;;
72676;SDS011;60755;51.374;10.662;2023-05-10T12:10:52;1.02;;;1.02;;
72676;SDS011;60755;51.374;10.662;2023-05-10T12:13:22;1.20;;;1.20;;
72676;SDS011;60755;51.374;10.662;2023-05-10T12:15:50;1.52;;;1.42;;
72676;SDS011;60755;51.374;10.662;2023-05-10T12:18:22;1.50;;;1.50;;
72676;SDS011;60755;51.374;10.662;2023-05-10T12:20:51;1.02;;;1.02;;
72676;SDS011;60755;51.374;10.662;2023-05-10T12:23:18;0.80;;;0.80;;
72676;SDS011;60755;51.374;10.662;2023-05-10T12:25:47;1.10;;;1.10;;
72676;SDS011;60755;51.374;10.662;2023-05-10T12:28:14;1.15;;;1.10;;
72676;SDS011;60755;51.374;10.662;2023-05-10T12:30:42;0.90;;;0.90;;
72676;SDS011;60755;51.374;10.662;2023-05-10T12:33:12;1.15;;;1.10;;
72676;SDS011;60755;51.374;10.662;2023-05-10T12:35:45;0.68;;;0.68;;
72676;SDS011;60755;51.374;10.662;2023-05-10T12:38:26;0.60;;;0.60;;
72676;SDS011;60755;51.374;10.662;2023-05-10T12:40:56;0.80;;;0.80;;
72676;SDS011;60755;51.374;10.662;2023-05-10T12:43:24;1.45;;;0.82;;
72676;SDS011;60755;51.374;10.662;2023-05-10T12:45:53;2.13;;;1.15;;
72676;SDS011;60755;51.374;10.662;2023-05-10T12:48:20;0.77;;;0.70;;
72676;SDS011;60755;51.374;10.662;2023-05-10T12:50:48;2.40;;;1.00;;
72676;SDS011;60755;51.374;10.662;2023-05-10T12:53:15;0.70;;;0.70;;
72676;SDS011;60755;51.374;10.662;2023-05-10T12:55:43;2.05;;;1.60;;
72676;SDS011;60755;51.374;10.662;2023-05-10T12:58:10;1.33;;;0.98;;
72676;SDS011;60755;51.374;10.662;2023-05-10T13:00:38;1.45;;;0.63;;
72676;SDS011;60755;51.374;10.662;2023-05-10T13:03:07;0.88;;;0.88;;
72676;SDS011;60755;51.374;10.662;2023-05-10T13:05:35;0.90;;;0.90;;
72676;SDS011;60755;51.374;10.662;2023-05-10T13:08:03;0.73;;;0.73;;
72676;SDS011;60755;51.374;10.662;2023-05-10T13:10:31;0.77;;;0.77;;
72676;SDS011;60755;51.374;10.662;2023-05-10T13:12:58;0.70;;;0.70;;
72676;SDS011;60755;51.374;10.662;2023-05-10T13:15:26;1.13;;;0.93;;
72676;SDS011;60755;51.374;10.662;2023-05-10T13:17:53;1.10;;;1.10;;
72676;SDS011;60755;51.374;10.662;2023-05-10T13:20:22;1.10;;;1.00;;
72676;SDS011;60755;51.374;10.662;2023-05-10T13:22:49;0.90;;;0.90;;
72676;SDS011;60755;51.374;10.662;2023-05-10T13:25:16;1.00;;;0.73;;
72676;SDS011;60755;51.374;10.662;2023-05-10T13:27:44;0.90;;;0.90;;
72676;SDS011;60755;51.374;10.662;2023-05-10T13:30:11;0.90;;;0.90;;
72676;SDS011;60755;51.374;10.662;2023-05-10T13:32:39;0.80;;;0.77;;
72676;SDS011;60755;51.374;10.662;2023-05-10T13:35:06;1.38;;;1.13;;
72676;SDS011;60755;51.374;10.662;2023-05-10T13:37:35;1.00;;;1.00;;
72676;SDS011;60755;51.374;10.662;2023-05-10T13:40:03;3.70;;;1.33;;
72676;SDS011;60755;51.374;10.662;2023-05-10T13:42:32;0.77;;;0.77;;
72676;SDS011;60755;51.374;10.662;2023-05-10T13:44:59;2.00;;;1.10;;
72676;SDS011;60755;51.374;10.662;2023-05-10T13:47:27;0.98;;;0.98;;
72676;SDS011;60755;51.374;10.662;2023-05-10T13:49:54;1.40;;;1.02;;
72676;SDS011;60755;51.374;10.662;2023-05-10T13:52:23;2.42;;;1.33;;
72676;SDS011;60755;51.374;10.662;2023-05-10T13:54:51;0.82;;;0.82;;
72676;SDS011;60755;51.374;10.662;2023-05-10T13:57:20;0.93;;;0.93;;
72676;SDS011;60755;51.374;10.662;2023-05-10T13:59:47;0.85;;;0.82;;
72676;SDS011;60755;51.374;10.662;2023-05-10T14:02:14;2.13;;;1.42;;
72676;SDS011;60755;51.374;10.662;2023-05-10T14:04:42;1.05;;;1.05;;
72676;SDS011;60755;51.374;10.662;2023-05-10T14:07:09;1.00;;;1.00;;
72676;SDS011;60755;51.374;10.662;2023-05-10T14:09:36;0.80;;;0.80;;
72676;SDS011;60755;51.374;10.662;2023-05-10T14:12:05;2.95;;;1.70;;
72676;SDS011;60755;51.374;10.662;2023-05-10T14:14:32;2.25;;;1.20;;
72676;SDS011;60755;51.374;10.662;2023-05-10T14:16:59;0.90;;;0.90;;
72676;SDS011;60755;51.374;10.662;2023-05-10T14:19:26;1.55;;;0.90;;
72676;SDS011;60755;51.374;10.662;2023-05-10T14:21:56;1.20;;;1.20;;
72676;SDS011;60755;51.374;10.662;2023-05-10T14:24:23;1.00;;;1.00;;
72676;SDS011;60755;51.374;10.662;2023-05-10T14:26:50;1.42;;;1.00;;
72676;SDS011;60755;51.374;10.662;2023-05-10T14:29:20;0.95;;;0.95;;
72676;SDS011;60755;51.374;10.662;2023-05-10T14:31:49;2.25;;;2.15;;
72676;SDS011;60755;51.374;10.662;2023-05-10T14:34:16;2.65;;;2.55;;
72676;SDS011;60755;51.374;10.662;2023-05-10T14:36:43;3.38;;;1.90;;
72676;SDS011;60755;51.374;10.662;2023-05-10T14:39:11;4.60;;;1.10;;
72676;SDS011;60755;51.374;10.662;2023-05-10T14:41:39;1.00;;;1.00;;
72676;SDS011;60755;51.374;10.662;2023-05-10T14:44:08;7.53;;;1.50;;
72676;SDS011;60755;51.374;10.662;2023-05-10T14:46:37;3.67;;;2.03;;
72676;SDS011;60755;51.374;10.662;2023-05-10T14:49:04;2.65;;;2.45;;
72676;SDS011;60755;51.374;10.662;2023-05-10T14:51:31;2.05;;;1.63;;
72676;SDS011;60755;51.374;10.662;2023-05-10T14:53:58;3.47;;;3.28;;
72676;SDS011;60755;51.374;10.662;2023-05-10T14:56:26;4.82;;;4.38;;